NVVVNWWW

Guest
Details From NVVV - Bauerfield
To NWWW - Noumea La Tontouta
Flight Number -
Tags generated
Created
Modified
Stats Distance 285 nm / 529 km
Max Altitude 34,000 ft / 10,363 m
Waypoints 5
Social Downloads 4
Likes 0
Share VATSIM

Download

Looking for another format? Having issues loading an existing format? Contact us
Advertisement - Login to hide

Notes

Basic altitude profile: - Ascent Rate: 2500ft/min - Ascent Speed: 250kts - Cruise Altitude: 35000ft - Cruise Speed: 420kts - Descent Rate: 1500ft/min - Descent Speed: 250kts

Route

NVVV LEDIT B590 LTO NWWW

ID Type Via Altitude Latitude Longitude Leg Dist Tot Dist Heading (true) Name
O NVVV APT - 0 ft / 0 m -17.69818˚ 168.31754˚ - 0 nm - Bauerfield
LEDIT FIX - 20,600 ft / 6,279 m -18.54500˚ 167.83667˚ 57 nm 57 nm 208° / 208° -
NIPOG FIX B590 (AWY-HI) 34,000 ft / 10,363 m -19.50000˚ 167.39333˚ 62 nm 120 nm 204° / 204° -
LTO VOR B590 (AWY-HI) 20,000 ft / 6,096 m -22.00511˚ 166.21178˚ 164 nm 284 nm 204° / 204° LA TONTOUTA VOR-DME
O NWWW APT - 0 ft / 0 m -22.01453˚ 166.21302˚ 0 nm 285 nm 173° / 173° Noumea La Tontouta

Altitude Profile

Advertisement - Login to hide

Weather


0- 5 10 15 20 25 30 35+ Temperature / ° C

Clouds and Precipitation
Forecast for 2018-05-23 12:00 UTC. Updated 4 hours ago

Ground ~20,000 ft ~40,000 ft Winds

NVVV

Details ICAO NVVV (VLI)
Name Bauerfield
Region Vanuatu
Timezone Pacific/Efate (UTC+11.0)
Stats Elevation 70 ft / 21 m (AMSL)
Location -17.698183° 168.317539°
Runways 1
Magnetic Variation 11.560° E

METAR

Not found

TAF

TAF NVVV 231000Z 2312/2412 13505KT 9999 SCT020 BKN040 PROB40 INTER 2312/2318 9000 -SHRA BKN018 OVC040 BECMG 2319/2321 13512KT

Decode

Departure Runways

ID Width Length Bearing (true) Bearing (mag) Surface Threshold Offset Overrun Length
11 148 ft / 45 m 8,531 ft / 2,600 m 118.01° 106.45° Asphalt 0 ft / 0 m 197 ft / 60 m
29 148 ft / 45 m 8,531 ft / 2,600 m 298.01° 286.45° Asphalt 0 ft / 0 m 197 ft / 60 m

NWWW

Details ICAO NWWW (NOU)
Name Noumea La Tontouta
Region New Caledonia
Timezone Pacific/Noumea (UTC+11.0)
Stats Elevation 51 ft / 16 m (AMSL)
Location -22.014529° 166.213022°
Runways 1
Magnetic Variation 12.347° E

METAR

NWWW 231500Z AUTO 15002KT 9999 FEW039 17/15 Q1016 NOSIG

Decode

TAF

TAF NWWW 231100Z 2312/2412 VRB02KT 9999 SCT040 PROB30 TEMPO 2318/2324 SHRA BECMG 2323/2401 14012KT BECMG 2406/2408 VRB02KT

Decode

Destination Runways

ID Width Length Bearing (true) Bearing (mag) Surface Threshold Offset Overrun Length
11 148 ft / 45 m 10,666 ft / 3,251 m 121.21° 108.86° Asphalt 0 ft / 0 m 338 ft / 103 m
29 148 ft / 45 m 10,666 ft / 3,251 m 301.19° 288.84° Asphalt 0 ft / 0 m 354 ft / 108 m

Approach Navaids

Runway Type Ident Frequency Range Bearing (true) Bearing (mag) Slope Elevation
11 Localiser LT 109.90 MHz 18 nm / 33 km 120.69° 108.34° - 52 ft / 16 m (AMSL)
11 Glidescope LT 109.90 MHz 10 nm / 19 km 121.20° 108.85° 3.00° 24 ft / 7 m (AMSL)

Popular Alternatives